createdAt,value
2022-12-03T06:05:19.444Z,0.373
2022-12-03T06:15:05.143Z,1.12
2022-12-03T06:20:15.363Z,2.614
2022-12-03T06:23:34.323Z,4.482
2022-12-03T06:28:43.661Z,9.711
2022-12-03T06:33:43.798Z,19.422
2022-12-03T06:39:20.606Z,41.458
2022-12-03T06:45:06.079Z,79.929
2022-12-03T06:50:06.197Z,128.484
2022-12-03T06:52:44.459Z,165.087
2022-12-03T06:58:40.392Z,274.896
2022-12-03T07:03:40.486Z,403.38
2022-12-03T07:08:40.615Z,621.504
2022-12-03T07:11:54.543Z,755.964
2022-12-03T07:18:15.446Z,812.736
2022-12-03T07:23:15.593Z,926.28
2022-12-03T07:28:15.642Z,1015.92
2022-12-03T07:33:15.734Z,1135.44
2022-12-03T07:38:15.876Z,1254.96
2022-12-03T07:43:15.959Z,1404.36
2022-12-03T07:48:41.271Z,1697.184
2022-12-03T07:53:11.703Z,1709.136
2022-12-03T07:56:20.442Z,1972.08
2022-12-03T08:01:35.268Z,2235.024
2022-12-03T08:04:38.870Z,2378.448
2022-12-03T08:07:16.975Z,2641.392
2022-12-03T08:10:10.475Z,2605.536
2022-12-03T08:16:26.679Z,3346.56
2022-12-03T08:22:47.985Z,4039.776
2022-12-03T08:27:03.140Z,4183.2
2022-12-03T08:30:06.762Z,4159.296
2022-12-03T08:32:49.990Z,3824.64
2022-12-03T08:37:25.355Z,3346.56
2022-12-03T08:40:34.199Z,3274.848
2022-12-03T08:43:37.896Z,3155.328
2022-12-03T08:46:10.935Z,3059.712
2022-12-03T08:50:00.511Z,2689.2
2022-12-03T08:53:29.644Z,2629.44
2022-12-03T08:58:40.814Z,2151.36
2022-12-03T09:01:39.396Z,1984.032
2022-12-03T09:06:54.268Z,1756.944
2022-12-03T09:11:54.397Z,1984.032
2022-12-03T09:15:33.923Z,2031.84
2022-12-03T09:20:53.836Z,2115.504
2022-12-03T09:24:38.244Z,2509.92
2022-12-03T09:29:58.062Z,2689.2
2022-12-03T09:34:58.162Z,2880.432
2022-12-03T09:38:22.296Z,3609.504
2022-12-03T09:41:51.475Z,5211.072
2022-12-03T09:47:16.653Z,6406.272
2022-12-03T09:50:05.060Z,6932.16
2022-12-03T09:53:38.113Z,7410.24
2022-12-03T09:58:09.676Z,6693.12
2022-12-03T10:00:42.688Z,7553.664
2022-12-03T10:06:09.135Z,6406.272
2022-12-03T10:08:42.160Z,7123.392
2022-12-03T10:12:01.131Z,8031.744
2022-12-03T10:14:34.149Z,8940.096
2022-12-03T10:18:18.580Z,9226.944
2022-12-03T10:20:51.642Z,8987.904
2022-12-03T10:24:46.240Z,9944.064
2022-12-03T10:28:46.057Z,10422.144
2022-12-03T10:32:13.431Z,11521.728
2022-12-03T10:35:01.868Z,10230.912
2022-12-03T10:38:20.846Z,9513.792
2022-12-03T10:41:24.540Z,8748.864
2022-12-03T10:44:07.820Z,8031.744
2022-12-03T10:47:06.502Z,8127.36
2022-12-03T10:49:39.415Z,8748.864
2022-12-03T10:53:59.585Z,10039.68
2022-12-03T11:00:15.488Z,9322.56
2022-12-03T11:03:54.945Z,8462.016
2022-12-03T11:11:02.505Z,8653.248
2022-12-03T11:14:22.864Z,7553.664
2022-12-03T11:20:55.438Z,7601.472
2022-12-03T11:28:18.672Z,5258.88
2022-12-03T11:33:18.734Z,4900.32
2022-12-03T11:38:18.852Z,5521.824
2022-12-03T11:43:18.978Z,5450.112
2022-12-03T11:48:19.099Z,5306.688
2022-12-03T11:53:19.190Z,4326.624
2022-12-03T11:58:19.262Z,3991.968
2022-12-03T12:03:19.478Z,4637.376
2022-12-03T12:08:19.566Z,4254.912
2022-12-03T12:13:19.621Z,4446.144
2022-12-03T12:18:19.742Z,4422.24
2022-12-03T12:23:19.796Z,4541.76
2022-12-03T12:28:19.911Z,4302.72
2022-12-03T12:33:20.000Z,3920.256
2022-12-03T12:38:20.113Z,3179.232
2022-12-03T12:43:23.671Z,3107.52
2022-12-03T12:48:20.366Z,3346.56
2022-12-03T12:53:20.408Z,3179.232
2022-12-03T12:58:20.577Z,2665.296
2022-12-03T13:08:20.788Z,2629.44
2022-12-03T13:13:20.823Z,2294.784
2022-12-03T13:18:20.902Z,2091.6
2022-12-03T13:23:20.984Z,1900.368
2022-12-03T13:28:21.104Z,1744.992
2022-12-03T13:30:59.337Z,1673.28
2022-12-03T13:37:15.620Z,1733.04
2022-12-03T13:43:44.630Z,1685.232
2022-12-03T13:46:16.580Z,1577.664
2022-12-03T13:49:20.157Z,1440.216
2022-12-03T13:51:58.361Z,1565.712
2022-12-03T13:54:31.494Z,1452.168
2022-12-03T13:57:04.601Z,1422.288
2022-12-03T13:59:58.215Z,1368.504
2022-12-03T14:02:36.446Z,1260.936
2022-12-03T14:05:19.765Z,1207.152
2022-12-03T14:07:57.977Z,1033.848
2022-12-03T14:10:41.189Z,758.952
2022-12-03T14:13:39.738Z,609.552
2022-12-03T14:16:12.847Z,639.432
2022-12-03T14:18:51.078Z,690.228
2022-12-03T14:21:24.136Z,567.72
2022-12-03T14:24:12.604Z,484.056
2022-12-03T14:26:45.700Z,460.152
2022-12-03T14:30:45.478Z,493.02
2022-12-03T14:33:18.565Z,466.128
2022-12-03T14:35:51.654Z,418.32
2022-12-03T14:38:29.925Z,348.102
2022-12-03T14:41:08.209Z,334.656
2022-12-03T14:43:46.486Z,286.848
2022-12-03T14:46:24.775Z,268.92
2022-12-03T14:49:18.219Z,239.04
2022-12-03T14:51:51.414Z,210.654
2022-12-03T14:54:34.714Z,179.28
2022-12-03T14:57:07.809Z,168.822
2022-12-03T14:59:46.148Z,150.147
2022-12-03T15:02:29.439Z,122.508
2022-12-03T15:05:07.681Z,105.327
2022-12-03T15:07:40.770Z,95.242
2022-12-03T15:10:13.988Z,73.206
2022-12-03T15:12:47.153Z,60.507
2022-12-03T15:15:20.258Z,45.94
2022-12-03T15:17:58.440Z,31.747
2022-12-03T15:20:36.632Z,21.663
2022-12-03T15:23:14.023Z,15.313
2022-12-03T15:26:08.307Z,10.458
2022-12-03T15:28:51.517Z,7.47
2022-12-03T15:31:29.779Z,4.855
2022-12-03T15:34:16.136Z,2.988
2022-12-03T15:37:52.451Z,1.494
2022-12-03T15:42:17.832Z,0.747
2022-12-03T15:53:10.986Z,0
